Terminal Aerodrome Forecast
Issued by NWS

Home | Current Version | Previous Version | Text Only | Print | Product List | Glossary On
Versions: 1 2 3 4 5 6 7 8 9 10 11 12 13 14 15 16 17
000
FTUS44 KEPZ 230500
TAFDMN
TAF
KDMN 230522Z 2306/2406 07008KT P6SM VCSH SCT020 BKN040 BKN100
     FM231900 13008KT P6SM VCTS SCT030 SCT050CB SCT100
     FM240000 16008KT P6SM SCT050 SCT100 SCT200=

USA.gov is the U.S. government's official web portal to all federal, state and local government web resources and services.